sensor_id;sensor_type;location;lat;lon;timestamp;temperature;humidity
18169;DHT22;49877;50.398;30.324;2022-12-29T00:02:26;3.10;99.90
18169;DHT22;49877;50.398;30.324;2022-12-29T00:04:53;3.10;99.90
18169;DHT22;49877;50.398;30.324;2022-12-29T00:07:20;3.20;99.90
18169;DHT22;49877;50.398;30.324;2022-12-29T00:09:47;3.20;99.90
18169;DHT22;49877;50.398;30.324;2022-12-29T00:12:13;3.20;99.90
18169;DHT22;49877;50.398;30.324;2022-12-29T00:14:42;3.20;99.90
18169;DHT22;49877;50.398;30.324;2022-12-29T00:17:26;3.20;99.90
18169;DHT22;49877;50.398;30.324;2022-12-29T00:19:53;3.20;99.90
18169;DHT22;49877;50.398;30.324;2022-12-29T00:22:37;3.20;99.90
18169;DHT22;49877;50.398;30.324;2022-12-29T00:25:21;3.20;99.90
18169;DHT22;49877;50.398;30.324;2022-12-29T00:28:07;3.20;99.90
18169;DHT22;49877;50.398;30.324;2022-12-29T00:30:53;3.20;99.90
18169;DHT22;49877;50.398;30.324;2022-12-29T00:33:42;3.20;99.90
18169;DHT22;49877;50.398;30.324;2022-12-29T00:36:28;3.20;99.90
18169;DHT22;49877;50.398;30.324;2022-12-29T00:39:00;3.20;99.90
18169;DHT22;49877;50.398;30.324;2022-12-29T00:41:44;3.30;99.90
18169;DHT22;49877;50.398;30.324;2022-12-29T00:44:29;3.30;99.90
18169;DHT22;49877;50.398;30.324;2022-12-29T00:46:57;3.30;99.90
18169;DHT22;49877;50.398;30.324;2022-12-29T00:49:27;3.30;99.90
18169;DHT22;49877;50.398;30.324;2022-12-29T00:51:58;3.30;99.90
18169;DHT22;49877;50.398;30.324;2022-12-29T00:54:26;3.30;99.90
18169;DHT22;49877;50.398;30.324;2022-12-29T00:56:53;3.30;99.90
18169;DHT22;49877;50.398;30.324;2022-12-29T00:59:20;3.30;99.90
18169;DHT22;49877;50.398;30.324;2022-12-29T01:01:49;3.30;99.90
18169;DHT22;49877;50.398;30.324;2022-12-29T01:04:18;3.30;99.90
18169;DHT22;49877;50.398;30.324;2022-12-29T01:06:45;3.30;99.90
18169;DHT22;49877;50.398;30.324;2022-12-29T01:09:12;3.30;99.90
18169;DHT22;49877;50.398;30.324;2022-12-29T01:11:57;3.30;99.90
18169;DHT22;49877;50.398;30.324;2022-12-29T01:14:24;3.30;99.90
18169;DHT22;49877;50.398;30.324;2022-12-29T01:16:51;3.30;99.90
18169;DHT22;49877;50.398;30.324;2022-12-29T01:19:20;3.30;99.90
18169;DHT22;49877;50.398;30.324;2022-12-29T01:21:47;3.30;99.90
18169;DHT22;49877;50.398;30.324;2022-12-29T01:24:15;3.30;99.90
18169;DHT22;49877;50.398;30.324;2022-12-29T01:26:42;3.30;99.90
18169;DHT22;49877;50.398;30.324;2022-12-29T01:29:09;3.30;99.90
18169;DHT22;49877;50.398;30.324;2022-12-29T01:31:36;3.30;99.90
18169;DHT22;49877;50.398;30.324;2022-12-29T01:34:03;3.20;99.90
18169;DHT22;49877;50.398;30.324;2022-12-29T01:36:32;3.20;99.90
18169;DHT22;49877;50.398;30.324;2022-12-29T01:38:59;3.10;99.90
18169;DHT22;49877;50.398;30.324;2022-12-29T01:41:26;3.10;99.90
18169;DHT22;49877;50.398;30.324;2022-12-29T01:43:56;3.10;99.90
18169;DHT22;49877;50.398;30.324;2022-12-29T01:46:26;3.10;99.90
18169;DHT22;49877;50.398;30.324;2022-12-29T01:48:58;3.00;99.90
18169;DHT22;49877;50.398;30.324;2022-12-29T01:51:27;3.00;99.90
18169;DHT22;49877;50.398;30.324;2022-12-29T01:53:58;3.00;99.90
18169;DHT22;49877;50.398;30.324;2022-12-29T01:56:28;3.00;99.90
18169;DHT22;49877;50.398;30.324;2022-12-29T01:58:59;3.00;99.90
18169;DHT22;49877;50.398;30.324;2022-12-29T02:01:27;3.00;99.90
18169;DHT22;49877;50.398;30.324;2022-12-29T02:03:54;3.00;99.90
18169;DHT22;49877;50.398;30.324;2022-12-29T02:06:22;2.90;99.90
18169;DHT22;49877;50.398;30.324;2022-12-29T02:08:53;2.90;99.90
18169;DHT22;49877;50.398;30.324;2022-12-29T02:11:23;2.90;99.90
18169;DHT22;49877;50.398;30.324;2022-12-29T02:13:51;2.90;99.90
18169;DHT22;49877;50.398;30.324;2022-12-29T02:16:36;2.90;99.90
18169;DHT22;49877;50.398;30.324;2022-12-29T02:19:44;2.80;99.90
18169;DHT22;49877;50.398;30.324;2022-12-29T02:22:25;2.80;99.90
18169;DHT22;49877;50.398;30.324;2022-12-29T02:28:26;2.80;99.90
18169;DHT22;49877;50.398;30.324;2022-12-29T02:31:08;2.70;99.90
18169;DHT22;49877;50.398;30.324;2022-12-29T02:33:51;2.70;99.90
18169;DHT22;49877;50.398;30.324;2022-12-29T02:36:25;2.70;99.90
18169;DHT22;49877;50.398;30.324;2022-12-29T02:39:01;2.70;99.90
18169;DHT22;49877;50.398;30.324;2022-12-29T02:41:33;2.60;99.90
18169;DHT22;49877;50.398;30.324;2022-12-29T02:44:06;2.60;99.90
18169;DHT22;49877;50.398;30.324;2022-12-29T02:46:43;2.60;99.90
18169;DHT22;49877;50.398;30.324;2022-12-29T02:49:13;2.60;99.90
18169;DHT22;49877;50.398;30.324;2022-12-29T02:51:48;2.60;99.90
18169;DHT22;49877;50.398;30.324;2022-12-29T02:54:17;2.60;99.90
18169;DHT22;49877;50.398;30.324;2022-12-29T02:57:02;2.60;99.90
18169;DHT22;49877;50.398;30.324;2022-12-29T02:59:29;2.60;99.90
18169;DHT22;49877;50.398;30.324;2022-12-29T03:02:19;2.60;99.90
18169;DHT22;49877;50.398;30.324;2022-12-29T03:05:17;2.50;99.90
18169;DHT22;49877;50.398;30.324;2022-12-29T03:07:54;2.60;99.90
18169;DHT22;49877;50.398;30.324;2022-12-29T03:10:34;2.60;99.90
18169;DHT22;49877;50.398;30.324;2022-12-29T03:13:06;2.60;99.90
18169;DHT22;49877;50.398;30.324;2022-12-29T03:16:05;2.60;99.90
18169;DHT22;49877;50.398;30.324;2022-12-29T03:18:40;2.60;99.90
18169;DHT22;49877;50.398;30.324;2022-12-29T03:21:12;2.60;99.90
18169;DHT22;49877;50.398;30.324;2022-12-29T03:23:43;2.60;99.90
18169;DHT22;49877;50.398;30.324;2022-12-29T03:26:14;2.60;99.90
18169;DHT22;49877;50.398;30.324;2022-12-29T03:28:46;2.50;99.90
18169;DHT22;49877;50.398;30.324;2022-12-29T03:31:15;2.50;99.90
18169;DHT22;49877;50.398;30.324;2022-12-29T03:33:44;2.40;99.90
18169;DHT22;49877;50.398;30.324;2022-12-29T03:36:17;2.40;99.90
18169;DHT22;49877;50.398;30.324;2022-12-29T03:38:47;2.40;99.90
18169;DHT22;49877;50.398;30.324;2022-12-29T03:41:18;2.40;99.90
18169;DHT22;49877;50.398;30.324;2022-12-29T03:43:47;2.40;99.90
18169;DHT22;49877;50.398;30.324;2022-12-29T03:46:14;2.40;99.90
18169;DHT22;49877;50.398;30.324;2022-12-29T03:48:41;2.40;99.90
18169;DHT22;49877;50.398;30.324;2022-12-29T03:51:09;2.30;99.90
18169;DHT22;49877;50.398;30.324;2022-12-29T03:53:36;2.40;99.90
18169;DHT22;49877;50.398;30.324;2022-12-29T03:56:03;2.30;99.90
18169;DHT22;49877;50.398;30.324;2022-12-29T03:58:30;2.40;99.90
18169;DHT22;49877;50.398;30.324;2022-12-29T04:00:56;2.40;99.90
18169;DHT22;49877;50.398;30.324;2022-12-29T04:03:23;2.30;99.90
18169;DHT22;49877;50.398;30.324;2022-12-29T04:05:50;2.30;99.90
18169;DHT22;49877;50.398;30.324;2022-12-29T04:08:18;2.30;99.90
18169;DHT22;49877;50.398;30.324;2022-12-29T04:10:45;2.30;99.90
18169;DHT22;49877;50.398;30.324;2022-12-29T04:13:12;2.30;99.90
18169;DHT22;49877;50.398;30.324;2022-12-29T04:15:38;2.20;99.90
18169;DHT22;49877;50.398;30.324;2022-12-29T04:18:07;2.20;99.90
18169;DHT22;49877;50.398;30.324;2022-12-29T04:20:33;2.20;99.90
18169;DHT22;49877;50.398;30.324;2022-12-29T04:23:19;2.10;99.90
18169;DHT22;49877;50.398;30.324;2022-12-29T04:25:46;2.10;99.90
18169;DHT22;49877;50.398;30.324;2022-12-29T04:28:13;2.10;99.90
18169;DHT22;49877;50.398;30.324;2022-12-29T04:30:40;2.10;99.90
18169;DHT22;49877;50.398;30.324;2022-12-29T04:33:07;2.10;99.90
18169;DHT22;49877;50.398;30.324;2022-12-29T04:35:34;2.10;99.90
18169;DHT22;49877;50.398;30.324;2022-12-29T04:38:00;2.20;99.90
18169;DHT22;49877;50.398;30.324;2022-12-29T04:40:29;2.20;99.90
18169;DHT22;49877;50.398;30.324;2022-12-29T04:42:56;2.20;99.90
18169;DHT22;49877;50.398;30.324;2022-12-29T04:45:22;2.20;99.90
18169;DHT22;49877;50.398;30.324;2022-12-29T04:47:49;2.20;99.90
18169;DHT22;49877;50.398;30.324;2022-12-29T04:50:16;2.20;99.90
18169;DHT22;49877;50.398;30.324;2022-12-29T04:52:43;2.20;99.90
18169;DHT22;49877;50.398;30.324;2022-12-29T04:55:10;2.20;99.90
18169;DHT22;49877;50.398;30.324;2022-12-29T04:57:38;2.20;99.90
18169;DHT22;49877;50.398;30.324;2022-12-29T05:00:06;2.20;99.90
18169;DHT22;49877;50.398;30.324;2022-12-29T05:02:34;2.20;99.90
18169;DHT22;49877;50.398;30.324;2022-12-29T05:05:01;2.20;99.90
18169;DHT22;49877;50.398;30.324;2022-12-29T05:07:27;2.20;99.90
18169;DHT22;49877;50.398;30.324;2022-12-29T05:09:54;2.20;99.90
18169;DHT22;49877;50.398;30.324;2022-12-29T05:12:21;2.20;99.90
18169;DHT22;49877;50.398;30.324;2022-12-29T05:14:49;2.20;99.90
18169;DHT22;49877;50.398;30.324;2022-12-29T05:20:37;2.10;99.90
18169;DHT22;49877;50.398;30.324;2022-12-29T05:23:04;2.00;99.90
18169;DHT22;49877;50.398;30.324;2022-12-29T05:25:31;2.00;99.90
18169;DHT22;49877;50.398;30.324;2022-12-29T05:27:58;2.00;99.90
18169;DHT22;49877;50.398;30.324;2022-12-29T05:30:27;2.00;99.90
18169;DHT22;49877;50.398;30.324;2022-12-29T05:32:54;2.00;99.90
18169;DHT22;49877;50.398;30.324;2022-12-29T05:35:21;1.90;99.90
18169;DHT22;49877;50.398;30.324;2022-12-29T05:37:48;2.00;99.90
18169;DHT22;49877;50.398;30.324;2022-12-29T05:40:15;1.90;99.90
18169;DHT22;49877;50.398;30.324;2022-12-29T05:42:42;1.90;99.90
18169;DHT22;49877;50.398;30.324;2022-12-29T05:45:09;1.90;99.90
18169;DHT22;49877;50.398;30.324;2022-12-29T11:08:46;4.20;99.90
18169;DHT22;49877;50.398;30.324;2022-12-29T11:13:57;4.30;99.90
18169;DHT22;49877;50.398;30.324;2022-12-29T11:16:28;4.50;99.90
18169;DHT22;49877;50.398;30.324;2022-12-29T16:29:35;2.70;99.90
18169;DHT22;49877;50.398;30.324;2022-12-29T16:32:22;2.70;99.90
18169;DHT22;49877;50.398;30.324;2022-12-29T16:34:51;2.80;99.90
18169;DHT22;49877;50.398;30.324;2022-12-29T16:37:29;2.90;99.90
18169;DHT22;49877;50.398;30.324;2022-12-29T16:39:56;3.00;99.90
18169;DHT22;49877;50.398;30.324;2022-12-29T16:42:46;3.10;99.90
18169;DHT22;49877;50.398;30.324;2022-12-29T16:48:34;3.20;99.90
18169;DHT22;49877;50.398;30.324;2022-12-29T16:51:04;3.30;99.90
18169;DHT22;49877;50.398;30.324;2022-12-29T16:53:34;3.30;99.90
18169;DHT22;49877;50.398;30.324;2022-12-29T16:56:06;3.40;99.90
18169;DHT22;49877;50.398;30.324;2022-12-29T16:58:34;3.40;99.90
18169;DHT22;49877;50.398;30.324;2022-12-29T17:01:05;3.50;99.90
18169;DHT22;49877;50.398;30.324;2022-12-29T17:03:41;3.50;99.90
18169;DHT22;49877;50.398;30.324;2022-12-29T17:06:14;3.50;99.90
18169;DHT22;49877;50.398;30.324;2022-12-29T17:08:42;3.50;99.90
18169;DHT22;49877;50.398;30.324;2022-12-29T17:11:21;3.50;99.90
18169;DHT22;49877;50.398;30.324;2022-12-29T17:14:09;3.50;99.90
18169;DHT22;49877;50.398;30.324;2022-12-29T17:16:41;3.50;99.90
18169;DHT22;49877;50.398;30.324;2022-12-29T17:19:11;3.50;99.90
18169;DHT22;49877;50.398;30.324;2022-12-29T17:21:42;3.50;99.90
18169;DHT22;49877;50.398;30.324;2022-12-29T17:24:13;3.50;99.90
18169;DHT22;49877;50.398;30.324;2022-12-29T17:26:42;3.50;99.90
18169;DHT22;49877;50.398;30.324;2022-12-29T17:29:14;3.50;99.90
18169;DHT22;49877;50.398;30.324;2022-12-29T17:31:44;3.40;99.90
18169;DHT22;49877;50.398;30.324;2022-12-29T17:34:11;3.40;99.90
18169;DHT22;49877;50.398;30.324;2022-12-29T17:36:38;3.40;99.90
18169;DHT22;49877;50.398;30.324;2022-12-29T17:39:05;3.40;99.90
18169;DHT22;49877;50.398;30.324;2022-12-29T17:41:33;3.40;99.90
18169;DHT22;49877;50.398;30.324;2022-12-29T17:44:01;3.30;99.90
18169;DHT22;49877;50.398;30.324;2022-12-29T17:46:28;3.30;99.90
18169;DHT22;49877;50.398;30.324;2022-12-29T17:48:57;3.30;99.90
18169;DHT22;49877;50.398;30.324;2022-12-29T17:51:23;3.30;99.90
18169;DHT22;49877;50.398;30.324;2022-12-29T17:53:50;3.20;99.90
18169;DHT22;49877;50.398;30.324;2022-12-29T17:56:17;3.20;99.90
18169;DHT22;49877;50.398;30.324;2022-12-29T17:58:45;3.10;99.90
18169;DHT22;49877;50.398;30.324;2022-12-29T18:01:13;3.10;99.90
18169;DHT22;49877;50.398;30.324;2022-12-29T18:03:40;3.10;99.90
18169;DHT22;49877;50.398;30.324;2022-12-29T18:06:10;3.10;99.90
18169;DHT22;49877;50.398;30.324;2022-12-29T18:08:38;3.10;99.90
18169;DHT22;49877;50.398;30.324;2022-12-29T18:11:15;3.10;99.90
18169;DHT22;49877;50.398;30.324;2022-12-29T18:13:45;3.10;99.90
18169;DHT22;49877;50.398;30.324;2022-12-29T18:16:12;3.10;99.90
18169;DHT22;49877;50.398;30.324;2022-12-29T18:18:39;3.10;99.90
18169;DHT22;49877;50.398;30.324;2022-12-29T18:21:14;3.10;99.90
18169;DHT22;49877;50.398;30.324;2022-12-29T18:23:41;3.10;99.90
18169;DHT22;49877;50.398;30.324;2022-12-29T18:26:13;3.10;99.90
18169;DHT22;49877;50.398;30.324;2022-12-29T18:28:42;3.10;99.90
18169;DHT22;49877;50.398;30.324;2022-12-29T18:31:16;3.00;99.90
18169;DHT22;49877;50.398;30.324;2022-12-29T18:33:44;3.00;99.90
18169;DHT22;49877;50.398;30.324;2022-12-29T18:36:13;3.00;99.90
18169;DHT22;49877;50.398;30.324;2022-12-29T18:38:40;3.00;99.90
18169;DHT22;49877;50.398;30.324;2022-12-29T18:41:14;3.00;99.90
18169;DHT22;49877;50.398;30.324;2022-12-29T18:43:41;3.10;99.90
18169;DHT22;49877;50.398;30.324;2022-12-29T18:46:08;3.10;99.90
18169;DHT22;49877;50.398;30.324;2022-12-29T18:48:35;3.10;99.90
18169;DHT22;49877;50.398;30.324;2022-12-29T18:51:03;3.10;99.90
18169;DHT22;49877;50.398;30.324;2022-12-29T18:53:31;3.10;99.90
18169;DHT22;49877;50.398;30.324;2022-12-29T18:56:01;3.10;99.90
18169;DHT22;49877;50.398;30.324;2022-12-29T18:58:28;3.20;99.90
18169;DHT22;49877;50.398;30.324;2022-12-29T19:00:55;3.20;99.90
18169;DHT22;49877;50.398;30.324;2022-12-29T19:03:22;3.20;99.90
18169;DHT22;49877;50.398;30.324;2022-12-29T19:05:48;3.30;99.90
18169;DHT22;49877;50.398;30.324;2022-12-29T19:08:15;3.30;99.90
18169;DHT22;49877;50.398;30.324;2022-12-29T19:10:44;3.30;99.90
18169;DHT22;49877;50.398;30.324;2022-12-29T19:13:15;3.30;99.90
18169;DHT22;49877;50.398;30.324;2022-12-29T19:15:42;3.30;99.90
18169;DHT22;49877;50.398;30.324;2022-12-29T19:18:20;3.40;99.90
18169;DHT22;49877;50.398;30.324;2022-12-29T19:20:48;3.50;99.90
18169;DHT22;49877;50.398;30.324;2022-12-29T19:23:17;3.50;99.90
18169;DHT22;49877;50.398;30.324;2022-12-29T19:25:46;3.50;99.90
18169;DHT22;49877;50.398;30.324;2022-12-29T19:28:16;3.50;99.90
18169;DHT22;49877;50.398;30.324;2022-12-29T19:30:44;3.50;99.90
18169;DHT22;49877;50.398;30.324;2022-12-29T19:33:11;3.60;99.90
18169;DHT22;49877;50.398;30.324;2022-12-29T19:35:38;3.60;99.90
18169;DHT22;49877;50.398;30.324;2022-12-29T19:38:05;3.50;99.90
18169;DHT22;49877;50.398;30.324;2022-12-29T19:40:32;3.60;99.90
18169;DHT22;49877;50.398;30.324;2022-12-29T19:43:01;3.60;99.90
18169;DHT22;49877;50.398;30.324;2022-12-29T19:45:27;3.60;99.90
18169;DHT22;49877;50.398;30.324;2022-12-29T19:47:54;3.70;99.90
18169;DHT22;49877;50.398;30.324;2022-12-29T19:50:21;3.70;99.90
18169;DHT22;49877;50.398;30.324;2022-12-29T19:52:48;3.80;99.90
18169;DHT22;49877;50.398;30.324;2022-12-29T19:55:15;3.80;99.90
18169;DHT22;49877;50.398;30.324;2022-12-29T19:57:42;3.80;99.90
18169;DHT22;49877;50.398;30.324;2022-12-29T20:00:12;3.80;99.90
18169;DHT22;49877;50.398;30.324;2022-12-29T20:02:39;3.80;99.90
18169;DHT22;49877;50.398;30.324;2022-12-29T20:05:07;3.80;99.90
18169;DHT22;49877;50.398;30.324;2022-12-29T20:07:34;3.80;99.90
18169;DHT22;49877;50.398;30.324;2022-12-29T20:10:01;3.80;99.90
18169;DHT22;49877;50.398;30.324;2022-12-29T20:12:28;3.80;99.90
18169;DHT22;49877;50.398;30.324;2022-12-29T20:14:55;3.80;99.90
18169;DHT22;49877;50.398;30.324;2022-12-29T20:17:23;3.80;99.90
18169;DHT22;49877;50.398;30.324;2022-12-29T20:19:50;3.80;99.90
18169;DHT22;49877;50.398;30.324;2022-12-29T20:22:17;3.80;99.90
18169;DHT22;49877;50.398;30.324;2022-12-29T20:24:43;3.80;99.90
18169;DHT22;49877;50.398;30.324;2022-12-29T20:27:12;3.80;99.90
18169;DHT22;49877;50.398;30.324;2022-12-29T20:29:40;3.90;99.90
18169;DHT22;49877;50.398;30.324;2022-12-29T20:32:09;3.90;99.90
18169;DHT22;49877;50.398;30.324;2022-12-29T20:34:38;3.90;99.90
18169;DHT22;49877;50.398;30.324;2022-12-29T20:37:06;3.90;99.90
18169;DHT22;49877;50.398;30.324;2022-12-29T20:39:33;3.90;99.90
18169;DHT22;49877;50.398;30.324;2022-12-29T20:42:00;4.00;99.90
18169;DHT22;49877;50.398;30.324;2022-12-29T20:44:28;3.90;99.90
18169;DHT22;49877;50.398;30.324;2022-12-29T20:46:57;3.90;99.90
18169;DHT22;49877;50.398;30.324;2022-12-29T20:49:24;3.90;99.90
18169;DHT22;49877;50.398;30.324;2022-12-29T20:51:52;4.00;99.90
18169;DHT22;49877;50.398;30.324;2022-12-29T20:54:20;3.90;99.90
18169;DHT22;49877;50.398;30.324;2022-12-29T20:56:47;4.00;99.90
18169;DHT22;49877;50.398;30.324;2022-12-29T20:59:14;4.00;99.90
18169;DHT22;49877;50.398;30.324;2022-12-29T21:01:41;4.00;99.90
18169;DHT22;49877;50.398;30.324;2022-12-29T21:04:08;4.00;99.90
18169;DHT22;49877;50.398;30.324;2022-12-29T21:06:35;3.90;99.90
18169;DHT22;49877;50.398;30.324;2022-12-29T21:09:03;4.00;99.90
18169;DHT22;49877;50.398;30.324;2022-12-29T21:11:31;4.00;99.90
18169;DHT22;49877;50.398;30.324;2022-12-29T21:13:58;4.00;99.90
18169;DHT22;49877;50.398;30.324;2022-12-29T21:16:25;4.00;99.90
18169;DHT22;49877;50.398;30.324;2022-12-29T21:18:52;4.00;99.90
18169;DHT22;49877;50.398;30.324;2022-12-29T21:21:20;4.10;99.90
18169;DHT22;49877;50.398;30.324;2022-12-29T21:23:48;4.10;99.90
18169;DHT22;49877;50.398;30.324;2022-12-29T21:26:18;4.10;99.90
18169;DHT22;49877;50.398;30.324;2022-12-29T21:28:45;4.10;99.90
18169;DHT22;49877;50.398;30.324;2022-12-29T21:31:22;4.10;99.90
18169;DHT22;49877;50.398;30.324;2022-12-29T21:33:50;4.10;99.90
18169;DHT22;49877;50.398;30.324;2022-12-29T21:36:17;4.00;99.90
18169;DHT22;49877;50.398;30.324;2022-12-29T21:38:44;4.00;99.90
18169;DHT22;49877;50.398;30.324;2022-12-29T21:41:13;4.10;99.90
18169;DHT22;49877;50.398;30.324;2022-12-29T21:43:42;4.00;99.90
18169;DHT22;49877;50.398;30.324;2022-12-29T21:46:29;4.00;99.90
18169;DHT22;49877;50.398;30.324;2022-12-29T21:48:55;4.00;99.90
18169;DHT22;49877;50.398;30.324;2022-12-29T21:51:22;4.00;99.90
18169;DHT22;49877;50.398;30.324;2022-12-29T21:54:09;4.00;99.90
18169;DHT22;49877;50.398;30.324;2022-12-29T21:56:50;4.10;99.90
18169;DHT22;49877;50.398;30.324;2022-12-29T21:59:18;4.10;99.90
18169;DHT22;49877;50.398;30.324;2022-12-29T22:02:04;4.10;99.90
18169;DHT22;49877;50.398;30.324;2022-12-29T22:04:49;4.10;99.90
18169;DHT22;49877;50.398;30.324;2022-12-29T22:07:33;4.10;99.90
18169;DHT22;49877;50.398;30.324;2022-12-29T22:10:17;4.10;99.90
18169;DHT22;49877;50.398;30.324;2022-12-29T22:13:01;4.10;99.90
18169;DHT22;49877;50.398;30.324;2022-12-29T22:15:31;4.10;99.90
18169;DHT22;49877;50.398;30.324;2022-12-29T22:18:00;4.10;99.90
18169;DHT22;49877;50.398;30.324;2022-12-29T22:20:28;4.10;99.90
18169;DHT22;49877;50.398;30.324;2022-12-29T22:22:55;4.10;99.90
18169;DHT22;49877;50.398;30.324;2022-12-29T22:25:23;4.10;99.90
18169;DHT22;49877;50.398;30.324;2022-12-29T22:27:50;4.10;99.90
18169;DHT22;49877;50.398;30.324;2022-12-29T22:30:17;4.10;99.90
18169;DHT22;49877;50.398;30.324;2022-12-29T22:32:45;4.00;99.90
18169;DHT22;49877;50.398;30.324;2022-12-29T22:35:12;4.00;99.90
18169;DHT22;49877;50.398;30.324;2022-12-29T22:37:40;4.00;99.90
18169;DHT22;49877;50.398;30.324;2022-12-29T22:40:09;4.00;99.90
18169;DHT22;49877;50.398;30.324;2022-12-29T22:42:36;3.90;99.90
18169;DHT22;49877;50.398;30.324;2022-12-29T22:45:04;4.00;99.90
18169;DHT22;49877;50.398;30.324;2022-12-29T22:47:31;3.90;99.90
18169;DHT22;49877;50.398;30.324;2022-12-29T22:49:59;3.90;99.90
18169;DHT22;49877;50.398;30.324;2022-12-29T22:52:26;3.90;99.90
18169;DHT22;49877;50.398;30.324;2022-12-29T22:54:53;3.80;99.90
18169;DHT22;49877;50.398;30.324;2022-12-29T22:57:19;3.80;99.90
18169;DHT22;49877;50.398;30.324;2022-12-29T22:59:46;3.70;99.90
18169;DHT22;49877;50.398;30.324;2022-12-29T23:02:13;3.70;99.90
18169;DHT22;49877;50.398;30.324;2022-12-29T23:04:40;3.70;99.90
18169;DHT22;49877;50.398;30.324;2022-12-29T23:07:08;3.70;99.90
18169;DHT22;49877;50.398;30.324;2022-12-29T23:09:35;3.70;99.90
18169;DHT22;49877;50.398;30.324;2022-12-29T23:12:01;3.60;99.90
18169;DHT22;49877;50.398;30.324;2022-12-29T23:14:28;3.60;99.90
18169;DHT22;49877;50.398;30.324;2022-12-29T23:16:55;3.60;99.90
18169;DHT22;49877;50.398;30.324;2022-12-29T23:19:22;3.50;99.90
18169;DHT22;49877;50.398;30.324;2022-12-29T23:21:48;3.50;99.90
18169;DHT22;49877;50.398;30.324;2022-12-29T23:24:16;3.50;99.90
18169;DHT22;49877;50.398;30.324;2022-12-29T23:26:45;3.50;99.90
18169;DHT22;49877;50.398;30.324;2022-12-29T23:29:14;3.50;99.90
18169;DHT22;49877;50.398;30.324;2022-12-29T23:31:41;3.40;99.90
18169;DHT22;49877;50.398;30.324;2022-12-29T23:34:08;3.40;99.90
18169;DHT22;49877;50.398;30.324;2022-12-29T23:36:36;3.40;99.90
18169;DHT22;49877;50.398;30.324;2022-12-29T23:39:03;3.30;99.90
18169;DHT22;49877;50.398;30.324;2022-12-29T23:41:32;3.30;99.90
18169;DHT22;49877;50.398;30.324;2022-12-29T23:43:58;3.30;99.90
18169;DHT22;49877;50.398;30.324;2022-12-29T23:46:27;3.30;99.90
18169;DHT22;49877;50.398;30.324;2022-12-29T23:48:56;3.30;99.90
18169;DHT22;49877;50.398;30.324;2022-12-29T23:51:22;3.30;99.90
18169;DHT22;49877;50.398;30.324;2022-12-29T23:53:49;3.20;99.90
18169;DHT22;49877;50.398;30.324;2022-12-29T23:56:18;3.20;99.90
18169;DHT22;49877;50.398;30.324;2022-12-29T23:58:47;3.20;99.90
